Icarus — D5AX3 — position and weather

sailwx.info

Track history (hours):
 
Tides and Currents Weather Stations Pressure Air Temp Water Temp Dewpoint Dewpoint Depression Visibility Wind Speed Wind Dir Waves Ship Positions

Icarus

Last reported at 2015-Mar-25 12:18 UTC. Time now 2015-Mar-29 17:18 UTC.
Position N 39°03' E 009°47'.

Length 225 m; draft 14.2 m.

Type: Cargo ship. MMSI: 636015464.

Date/timePositionNaut miles runAvg speedWind from/ knotsBaromVisibWave heightAir tempDewpointWater temp
2015-Mar-25 12:18N 39°03' E 009°47'1810.3
2015-Mar-25 10:33N 38°54' E 009°27'10 9.9
2015-Mar-25 09:33N 38°49' E 009°16'10 9.9
2015-Mar-25 08:33N 38°43' E 009°06'9 9.3
2015-Mar-25 07:33N 38°39' E 008°55'1010.0
2015-Mar-25 06:33N 38°37' E 008°42'1210.4
2015-Mar-25 05:24N 38°35' E 008°27'2110.7
2015-Mar-25 03:28N 38°29' E 008°02'  
2015-Mar-22 15:27N 36°01' W 005°07'1011.7
2015-Mar-22 14:33N 36°04' W 005°20'3 3.2
2015-Mar-22 13:32N 36°07' W 005°22'0 0.2
2015-Mar-22 12:14N 36°07' W 005°22'0 0.0
2015-Mar-22 11:26N 36°07' W 005°22'0 0.0
2015-Mar-22 10:23N 36°07' W 005°22'0 0.0
2015-Mar-22 09:26N 36°07' W 005°22'0 0.0
2015-Mar-22 08:32N 36°07' W 005°22'0 0.0
2015-Mar-22 07:26N 36°07' W 005°22'0 0.0
2015-Mar-22 06:32N 36°07' W 005°22'0 0.0
2015-Mar-22 05:29N 36°07' W 005°22'0 0.1
2015-Mar-22 04:29N 36°07' W 005°22'0 0.1
2015-Mar-22 03:33N 36°07' W 005°22'2 1.5
2015-Mar-22 02:33N 36°05' W 005°22'5 4.9
2015-Mar-22 01:33N 36°01' W 005°19'9 8.8
2015-Mar-22 00:34N 35°57' W 005°28'  
2015-Mar-19 03:23N 28°41' W 014°40'7 8.0
2015-Mar-19 02:34N 28°35' W 014°43'8 7.7
2015-Mar-19 01:33N 28°28' W 014°46'8 8.3
2015-Mar-19 00:33N 28°20' W 014°49'9 8.4
2015-Mar-18 23:33N 28°12' W 014°52'8 8.0
2015-Mar-18 22:34N 28°05' W 014°55'8 8.0
2015-Mar-18 21:34N 27°57' W 014°58'8 8.5
2015-Mar-18 20:34N 27°49' W 015°02'9 8.9
2015-Mar-18 19:33N 27°41' W 015°06'9 8.9
2015-Mar-18 18:33N 27°33' W 015°10'  
Track history (hours):
 
Tides and Currents Weather Stations Pressure Air Temp Water Temp Dewpoint Dewpoint Depression Visibility Wind Speed Wind Dir Waves Ship Positions

Icarus

Last reported at 2015-Mar-25 12:18 UTC. Time now 2015-Mar-29 17:18 UTC.
Position N 39°03' E 009°47'.

Length 225 m; draft 14.2 m.

Type: Cargo ship. MMSI: 636015464.

Date/timePositionNaut miles runAvg speedWind from/ knotsBaromVisibWave heightAir tempDewpointWater temp
2015-Mar-25 12:18N 39°03' E 009°47'1810.3
2015-Mar-25 10:33N 38°54' E 009°27'10 9.9
2015-Mar-25 09:33N 38°49' E 009°16'10 9.9
2015-Mar-25 08:33N 38°43' E 009°06'9 9.3
2015-Mar-25 07:33N 38°39' E 008°55'1010.0
2015-Mar-25 06:33N 38°37' E 008°42'1210.4
2015-Mar-25 05:24N 38°35' E 008°27'2110.7
2015-Mar-25 03:28N 38°29' E 008°02'  
2015-Mar-22 15:27N 36°01' W 005°07'1011.7
2015-Mar-22 14:33N 36°04' W 005°20'3 3.2
2015-Mar-22 13:32N 36°07' W 005°22'0 0.2
2015-Mar-22 12:14N 36°07' W 005°22'0 0.0
2015-Mar-22 11:26N 36°07' W 005°22'0 0.0
2015-Mar-22 10:23N 36°07' W 005°22'0 0.0
2015-Mar-22 09:26N 36°07' W 005°22'0 0.0
2015-Mar-22 08:32N 36°07' W 005°22'0 0.0
2015-Mar-22 07:26N 36°07' W 005°22'0 0.0
2015-Mar-22 06:32N 36°07' W 005°22'0 0.0
2015-Mar-22 05:29N 36°07' W 005°22'0 0.1
2015-Mar-22 04:29N 36°07' W 005°22'0 0.1
2015-Mar-22 03:33N 36°07' W 005°22'2 1.5
2015-Mar-22 02:33N 36°05' W 005°22'5 4.9
2015-Mar-22 01:33N 36°01' W 005°19'9 8.8
2015-Mar-22 00:34N 35°57' W 005°28'  
2015-Mar-19 03:23N 28°41' W 014°40'7 8.0
2015-Mar-19 02:34N 28°35' W 014°43'8 7.7
2015-Mar-19 01:33N 28°28' W 014°46'8 8.3
2015-Mar-19 00:33N 28°20' W 014°49'9 8.4
2015-Mar-18 23:33N 28°12' W 014°52'8 8.0
2015-Mar-18 22:34N 28°05' W 014°55'8 8.0
2015-Mar-18 21:34N 27°57' W 014°58'8 8.5
2015-Mar-18 20:34N 27°49' W 015°02'9 8.9
2015-Mar-18 19:33N 27°41' W 015°06'9 8.9
2015-Mar-18 18:33N 27°33' W 015°10'  

Dump ship's entire track history